Time;durP1;ratioP1;P1;durP2;ratioP2;P2;SDS_P1;SDS_P2;PMS_P1;PMS_P2;Temp;Humidity;BMP_temperature;BMP_pressure;BME280_temperature;BME280_humidity;BME280_pressure;Samples;Min_cycle;Max_cycle;Signal;HPM_P1;HPM_P2
2022/04/10 00:00:40;;;;;;;7.35;5.20;;;5.10;99.90;;;;;;5050654;28;20029;-56
2022/04/10 00:03:06;;;;;;;10.50;5.88;;;5.20;99.90;;;;;;5049338;28;20099;-56
2022/04/10 00:05:32;;;;;;;6.65;5.18;;;5.30;99.90;;;;;;5051050;28;20476;-56
2022/04/10 00:07:58;;;;;;;8.15;5.60;;;5.30;99.90;;;;;;5050440;28;20057;-56
2022/04/10 00:10:23;;;;;;;8.40;5.65;;;5.20;99.90;;;;;;5050843;28;20029;-56
2022/04/10 00:12:49;;;;;;;9.55;6.00;;;5.20;99.90;;;;;;5050849;28;20037;-56
2022/04/10 00:15:15;;;;;;;8.48;5.70;;;5.30;99.90;;;;;;5050454;28;20051;-56
2022/04/10 00:17:42;;;;;;;7.90;5.70;;;5.30;99.90;;;;;;5050736;28;20115;-56
2022/04/10 00:20:09;;;;;;;10.70;5.70;;;5.20;99.90;;;;;;5051670;28;20025;-56
2022/04/10 00:22:47;;;;;;;8.52;5.43;;;5.20;99.90;;;;;;5051059;28;20049;-56
2022/04/10 00:25:15;;;;;;;8.05;5.70;;;5.20;99.90;;;;;;5049878;28;20033;-56
2022/04/10 00:27:41;;;;;;;8.55;5.70;;;5.20;99.90;;;;;;5050647;28;20048;-56
2022/04/10 00:30:11;;;;;;;14.65;5.68;;;5.20;99.90;;;;;;5050460;28;20032;-56
2022/04/10 00:32:37;;;;;;;10.52;5.85;;;5.20;99.90;;;;;;5050705;28;20036;-56
2022/04/10 00:35:08;;;;;;;8.70;5.88;;;5.10;99.90;;;;;;5050446;28;20036;-56
2022/04/10 00:37:35;;;;;;;10.52;6.13;;;5.10;99.90;;;;;;5050600;28;20018;-56
2022/04/10 00:40:02;;;;;;;13.65;6.03;;;5.10;99.90;;;;;;5050673;28;20021;-56
2022/04/10 00:42:38;;;;;;;10.18;6.10;;;5.10;99.90;;;;;;5050805;28;20086;-56
2022/04/10 00:45:05;;;;;;;8.80;5.95;;;5.10;99.90;;;;;;5050734;28;20102;-56
2022/04/10 00:47:31;;;;;;;9.25;5.65;;;5.10;99.90;;;;;;5048767;28;20501;-56
2022/04/10 00:49:58;;;;;;;11.13;6.15;;;5.10;99.90;;;;;;5052726;28;20027;-56
2022/04/10 00:52:26;;;;;;;11.73;6.13;;;5.10;99.90;;;;;;5053912;28;20024;-56
2022/04/10 00:54:52;;;;;;;10.25;5.90;;;5.10;99.90;;;;;;5053425;28;20037;-56
2022/04/10 00:57:19;;;;;;;9.73;6.45;;;5.10;99.90;;;;;;5053518;28;20033;-56
2022/04/10 00:59:45;;;;;;;10.68;6.25;;;5.10;99.90;;;;;;5054219;28;20382;-56
2022/04/10 01:02:11;;;;;;;9.85;6.00;;;5.10;99.90;;;;;;5054010;28;20034;-56
2022/04/10 01:04:37;;;;;;;7.22;5.57;;;5.20;99.90;;;;;;5052301;28;20025;-56
2022/04/10 01:07:04;;;;;;;8.77;5.90;;;5.20;99.90;;;;;;5054006;28;20025;-56
2022/04/10 01:09:33;;;;;;;9.82;6.40;;;5.10;99.90;;;;;;5054448;28;20531;-56
2022/04/10 01:12:02;;;;;;;11.00;6.50;;;5.00;99.90;;;;;;5053919;28;20501;-56
2022/04/10 01:14:28;;;;;;;10.63;6.50;;;4.90;99.90;;;;;;5053258;28;20031;-56
2022/04/10 01:16:54;;;;;;;13.77;6.50;;;4.80;99.90;;;;;;5053675;28;20112;-56
2022/04/10 01:19:20;;;;;;;10.00;6.47;;;4.70;99.90;;;;;;5052309;28;20091;-56
2022/04/10 01:21:47;;;;;;;12.57;6.55;;;4.80;99.90;;;;;;5053201;28;20037;-56
2022/04/10 01:24:14;;;;;;;10.57;6.88;;;4.80;99.90;;;;;;5053558;28;20432;-56
2022/04/10 01:26:41;;;;;;;12.10;7.03;;;4.90;99.90;;;;;;5053428;28;20482;-56
2022/04/10 01:29:13;;;;;;;12.52;7.43;;;4.90;99.90;;;;;;5052272;28;20053;-56
2022/04/10 01:31:43;;;;;;;15.77;7.50;;;4.70;99.90;;;;;;5053441;28;20017;-56
2022/04/10 01:34:15;;;;;;;12.45;7.63;;;4.50;99.90;;;;;;5053549;28;20025;-56
2022/04/10 01:36:42;;;;;;;11.80;7.25;;;4.50;99.90;;;;;;5053411;28;20083;-56
2022/04/10 01:39:09;;;;;;;11.77;8.10;;;4.60;99.90;;;;;;5053353;28;20044;-56
2022/04/10 01:41:35;;;;;;;18.15;7.95;;;4.60;99.90;;;;;;5052981;28;20020;-56
2022/04/10 01:44:02;;;;;;;16.60;8.05;;;4.50;99.90;;;;;;5053538;28;20055;-56
2022/04/10 01:46:29;;;;;;;14.57;8.63;;;4.50;99.90;;;;;;5053399;28;20017;-56
2022/04/10 01:48:56;;;;;;;15.10;8.45;;;4.50;99.90;;;;;;5053201;28;20098;-56
2022/04/10 01:51:22;;;;;;;12.80;7.80;;;4.50;99.90;;;;;;5053006;28;20025;-56
2022/04/10 01:53:48;;;;;;;12.13;8.35;;;4.30;99.90;;;;;;5053207;28;20025;-56
2022/04/10 01:56:13;;;;;;;12.07;8.15;;;4.00;99.90;;;;;;5053040;28;20098;-56
2022/04/10 01:58:44;;;;;;;11.07;7.95;;;4.00;99.90;;;;;;5052973;28;20017;-56
2022/04/10 02:01:12;;;;;;;13.13;8.85;;;3.90;99.90;;;;;;5052604;28;20029;-56
2022/04/10 02:03:38;;;;;;;10.70;8.70;;;3.90;99.90;;;;;;5053074;28;20025;-56
2022/04/10 02:06:06;;;;;;;12.35;8.70;;;3.80;99.90;;;;;;5052808;28;20029;-56
2022/04/10 02:08:32;;;;;;;17.77;8.80;;;3.80;99.90;;;;;;5051913;28;20037;-56
2022/04/10 02:10:58;;;;;;;13.98;8.55;;;3.80;99.90;;;;;;5052308;28;20105;-56
2022/04/10 02:13:24;;;;;;;14.43;8.73;;;3.90;99.90;;;;;;5052635;28;20028;-56
2022/04/10 02:15:50;;;;;;;10.63;8.43;;;3.90;99.90;;;;;;5052767;28;20025;-56
2022/04/10 02:18:17;;;;;;;12.43;8.43;;;3.90;99.90;;;;;;5052307;28;20052;-56
2022/04/10 02:20:43;;;;;;;12.88;8.13;;;3.90;99.90;;;;;;5052047;28;20541;-56
2022/04/10 02:23:09;;;;;;;16.52;9.30;;;3.90;99.90;;;;;;5052590;28;20055;-56
2022/04/10 02:25:35;;;;;;;17.50;8.85;;;3.90;99.90;;;;;;5051924;28;20478;-56
2022/04/10 02:28:00;;;;;;;14.18;8.52;;;4.10;99.90;;;;;;5052533;28;20025;-56
2022/04/10 02:30:27;;;;;;;15.48;8.77;;;4.00;99.90;;;;;;5052323;28;20095;-56
2022/04/10 02:32:53;;;;;;;18.30;8.68;;;4.00;99.90;;;;;;5051033;28;20033;-56
2022/04/10 02:35:18;;;;;;;12.25;7.95;;;4.00;99.90;;;;;;5050963;28;20036;-56
2022/04/10 02:37:47;;;;;;;13.68;8.93;;;4.00;99.90;;;;;;5052301;28;20040;-56
2022/04/10 02:40:14;;;;;;;12.57;8.23;;;3.90;99.90;;;;;;5052087;28;20025;-56
2022/04/10 02:42:40;;;;;;;15.15;7.78;;;3.80;99.90;;;;;;5052363;28;20048;-56
2022/04/10 02:45:07;;;;;;;12.18;8.43;;;3.70;99.90;;;;;;5051930;28;20029;-56
2022/04/10 02:47:33;;;;;;;18.67;9.00;;;3.60;99.90;;;;;;5052239;28;20033;-56
2022/04/10 02:49:59;;;;;;;13.60;8.90;;;3.50;99.90;;;;;;5051614;28;20040;-56
2022/04/10 02:52:25;;;;;;;14.50;8.45;;;3.40;99.90;;;;;;5051934;28;20112;-56
2022/04/10 02:54:51;;;;;;;14.63;9.23;;;3.30;99.90;;;;;;5050610;28;20102;-56
2022/04/10 02:57:17;;;;;;;17.40;10.20;;;3.40;99.90;;;;;;5052126;28;20063;-56
2022/04/10 02:59:42;;;;;;;16.27;9.30;;;3.60;99.90;;;;;;5051845;28;20077;-56
2022/04/10 03:02:08;;;;;;;23.38;10.40;;;3.60;99.90;;;;;;5050185;28;20036;-56
2022/04/10 03:04:33;;;;;;;17.63;9.77;;;3.70;99.90;;;;;;5051470;28;20021;-56
2022/04/10 03:06:59;;;;;;;14.10;8.15;;;3.70;99.90;;;;;;5051744;28;20494;-56
2022/04/10 03:09:25;;;;;;;14.25;8.10;;;3.70;99.90;;;;;;5051552;28;20024;-56
2022/04/10 03:11:50;;;;;;;17.10;8.95;;;3.50;99.90;;;;;;5051612;28;20453;-56
2022/04/10 03:14:16;;;;;;;15.95;9.00;;;3.20;99.90;;;;;;5050698;28;20021;-56
2022/04/10 03:16:44;;;;;;;16.10;9.35;;;3.10;99.90;;;;;;5050724;28;20037;-56
2022/04/10 03:19:10;;;;;;;16.13;9.35;;;3.00;99.90;;;;;;5051386;28;20088;-56
2022/04/10 03:21:36;;;;;;;15.38;9.60;;;3.10;99.90;;;;;;5051100;28;20133;-56
2022/04/10 03:24:03;;;;;;;20.50;10.43;;;3.10;99.90;;;;;;5053048;28;20147;-56
2022/04/10 03:26:29;;;;;;;21.92;10.60;;;3.20;99.90;;;;;;5052210;28;20025;-56
2022/04/10 03:28:55;;;;;;;17.48;9.55;;;3.30;99.90;;;;;;5083464;28;20083;-56
2022/04/10 03:31:22;;;;;;;18.05;9.55;;;3.20;99.90;;;;;;5050704;28;20045;-56
2022/04/10 03:33:48;;;;;;;19.48;10.43;;;3.20;99.90;;;;;;5050857;28;20036;-56
2022/04/10 03:36:14;;;;;;;21.58;11.23;;;3.30;99.90;;;;;;5050444;28;20490;-56
2022/04/10 03:38:39;;;;;;;20.02;10.93;;;3.50;99.90;;;;;;5083523;28;20021;-56
2022/04/10 03:41:05;;;;;;;17.00;10.38;;;3.50;99.90;;;;;;5050943;28;20036;-55
2022/04/10 03:43:32;;;;;;;21.00;10.82;;;3.30;99.90;;;;;;5050997;28;20218;-56
2022/04/10 03:46:01;;;;;;;20.20;11.63;;;3.30;99.90;;;;;;5050715;28;20025;-56
2022/04/10 03:48:27;;;;;;;21.13;11.45;;;3.20;99.90;;;;;;5051194;28;20057;-56
2022/04/10 03:50:53;;;;;;;20.48;11.00;;;3.20;99.90;;;;;;5051258;28;20659;-56
2022/04/10 03:53:19;;;;;;;18.40;11.32;;;3.20;99.90;;;;;;5051538;28;20033;-56
2022/04/10 03:55:44;;;;;;;19.52;10.77;;;3.10;99.90;;;;;;5051323;28;20111;-55
2022/04/10 03:58:10;;;;;;;18.73;10.68;;;3.00;99.90;;;;;;5051421;28;20017;-56
2022/04/10 04:00:36;;;;;;;17.98;10.80;;;3.00;99.90;;;;;;5083264;28;20036;-56
2022/04/10 04:03:01;;;;;;;18.50;11.25;;;2.90;99.90;;;;;;5050703;28;20025;-56
2022/04/10 04:05:28;;;;;;;17.73;10.45;;;2.70;99.90;;;;;;5051009;28;20548;-56
2022/04/10 04:07:53;;;;;;;17.52;10.88;;;2.60;99.90;;;;;;5050919;28;20305;-56
2022/04/10 04:10:19;;;;;;;16.75;11.18;;;2.50;99.90;;;;;;5051028;28;20084;-56
2022/04/10 04:12:45;;;;;;;17.92;11.55;;;2.50;99.90;;;;;;5051101;28;20047;-56
2022/04/10 04:15:11;;;;;;;15.80;9.65;;;2.60;99.90;;;;;;5083507;28;20108;-55
2022/04/10 04:17:40;;;;;;;20.30;10.30;;;2.50;99.90;;;;;;5049663;28;20025;-55
2022/04/10 04:20:06;;;;;;;18.60;10.68;;;2.50;99.90;;;;;;5050860;28;20021;-55
2022/04/10 04:22:33;;;;;;;22.38;10.63;;;2.40;99.90;;;;;;5050474;28;20075;-55
2022/04/10 04:24:59;;;;;;;21.27;11.18;;;2.40;99.90;;;;;;5054505;28;20025;-55
2022/04/10 04:27:25;;;;;;;18.77;11.25;;;2.30;99.90;;;;;;5054417;28;20033;-55
2022/04/10 04:29:51;;;;;;;21.70;12.23;;;2.30;99.90;;;;;;5087063;28;20415;-56
2022/04/10 04:32:16;;;;;;;24.15;13.90;;;2.30;99.90;;;;;;5054893;28;20036;-55
2022/04/10 04:34:42;;;;;;;25.80;12.93;;;2.40;99.90;;;;;;5054853;28;20021;-56
2022/04/10 04:37:09;;;;;;;17.65;11.82;;;2.40;99.90;;;;;;5054800;28;20029;-56
2022/04/10 04:39:35;;;;;;;23.17;11.38;;;2.30;99.90;;;;;;5054675;28;20089;-56
2022/04/10 04:42:01;;;;;;;17.33;11.75;;;2.20;99.90;;;;;;5054682;28;20036;-56
2022/04/10 04:44:30;;;;;;;19.48;11.73;;;2.20;99.90;;;;;;5054826;28;20409;-56
2022/04/10 04:46:56;;;;;;;18.77;12.48;;;2.10;99.90;;;;;;5086288;28;20033;-56
2022/04/10 04:49:22;;;;;;;22.27;12.75;;;2.20;99.90;;;;;;5054702;28;20562;-56
2022/04/10 04:51:48;;;;;;;20.88;12.77;;;2.20;99.90;;;;;;5054605;28;20123;-56
2022/04/10 04:54:13;;;;;;;24.40;13.38;;;2.30;99.90;;;;;;5053769;28;20024;-56
2022/04/10 04:56:39;;;;;;;23.27;12.57;;;2.40;99.90;;;;;;5052408;28;20059;-56
2022/04/10 04:59:05;;;;;;;24.02;12.27;;;2.40;99.90;;;;;;5053831;28;20021;-56
2022/04/10 05:01:31;;;;;;;20.17;11.60;;;2.50;99.90;;;;;;5053937;28;20021;-56
2022/04/10 05:03:56;;;;;;;21.88;12.88;;;2.40;99.90;;;;;;5086023;28;20166;-56
2022/04/10 05:06:22;;;;;;;22.52;12.52;;;2.50;99.90;;;;;;5053729;28;20017;-56
2022/04/10 05:08:47;;;;;;;20.55;12.38;;;2.50;99.90;;;;;;5053509;28;20040;-56
2022/04/10 05:11:14;;;;;;;20.08;11.20;;;2.40;99.90;;;;;;5053848;28;20393;-56
2022/04/10 05:13:40;;;;;;;22.40;12.13;;;2.50;99.90;;;;;;5053794;28;20564;-56
2022/04/10 05:16:06;;;;;;;24.80;13.18;;;2.60;99.90;;;;;;5053363;28;20025;-56
2022/04/10 05:18:32;;;;;;;23.85;12.85;;;2.60;99.90;;;;;;5053592;28;20029;-56
2022/04/10 05:20:58;;;;;;;19.75;12.32;;;2.70;99.90;;;;;;5053677;28;20497;-56
2022/04/10 05:23:23;;;;;;;21.67;11.45;;;2.80;99.90;;;;;;5053757;28;20091;-56
2022/04/10 05:25:50;;;;;;;17.63;11.43;;;2.80;99.90;;;;;;5053837;28;20029;-56
2022/04/10 05:28:16;;;;;;;16.95;10.98;;;2.80;99.90;;;;;;5053464;28;20037;-56
2022/04/10 05:30:42;;;;;;;32.80;13.45;;;2.80;99.90;;;;;;5053480;28;20033;-56
2022/04/10 05:33:09;;;;;;;26.45;12.80;;;2.70;99.90;;;;;;5053314;28;20025;-56
2022/04/10 05:35:35;;;;;;;18.50;11.90;;;2.90;99.90;;;;;;5052794;28;20065;-56
2022/04/10 05:38:00;;;;;;;24.35;12.98;;;3.10;99.90;;;;;;5053291;28;20297;-56
2022/04/10 05:40:26;;;;;;;21.75;13.10;;;3.10;99.90;;;;;;5053321;28;20028;-56
2022/04/10 05:42:52;;;;;;;20.42;12.32;;;3.10;99.90;;;;;;5053692;28;20017;-56
2022/04/10 05:45:18;;;;;;;18.95;11.23;;;2.90;99.90;;;;;;5052738;28;20132;-56
2022/04/10 05:47:44;;;;;;;16.38;11.25;;;2.90;99.90;;;;;;5052990;28;20025;-56
2022/04/10 05:50:10;;;;;;;18.67;11.90;;;3.10;99.90;;;;;;5052913;28;20474;-56
2022/04/10 05:52:45;;;;;;;22.95;12.48;;;3.10;99.90;;;;;;5053204;28;20017;-56
2022/04/10 05:55:16;;;;;;;23.70;12.50;;;3.00;99.90;;;;;;5053160;28;20382;-56
2022/04/10 05:57:43;;;;;;;23.70;12.45;;;3.10;99.90;;;;;;5085333;28;20486;-56
2022/04/10 06:00:12;;;;;;;22.08;13.05;;;3.20;99.90;;;;;;5084765;28;20029;-56
2022/04/10 06:02:38;;;;;;;18.55;11.98;;;3.20;99.90;;;;;;5051932;28;20575;-56
2022/04/10 06:05:04;;;;;;;23.20;13.38;;;3.10;99.90;;;;;;5052878;28;20051;-56
2022/04/10 06:07:30;;;;;;;20.00;11.82;;;3.10;99.90;;;;;;5052963;28;20021;-56
2022/04/10 06:09:56;;;;;;;21.13;12.18;;;3.30;99.90;;;;;;5051215;28;20025;-56
2022/04/10 06:12:21;;;;;;;19.70;11.77;;;3.40;99.90;;;;;;5052764;28;20131;-56
2022/04/10 06:14:47;;;;;;;19.10;12.23;;;3.50;99.90;;;;;;5052451;28;20024;-56
2022/04/10 06:17:13;;;;;;;26.63;12.10;;;3.50;99.90;;;;;;5052707;28;20036;-56
2022/04/10 06:19:38;;;;;;;24.08;12.10;;;3.70;99.90;;;;;;5053047;28;20471;-56
2022/04/10 06:22:05;;;;;;;19.88;11.85;;;3.80;99.90;;;;;;5052790;28;20037;-56
2022/04/10 06:24:31;;;;;;;21.75;11.75;;;3.80;99.90;;;;;;5052861;28;20526;-56
2022/04/10 06:26:57;;;;;;;19.98;12.32;;;3.90;99.90;;;;;;5052359;28;20109;-56
2022/04/10 06:29:23;;;;;;;18.10;11.90;;;3.90;99.90;;;;;;5052580;28;20025;-56
2022/04/10 06:31:49;;;;;;;19.70;12.38;;;4.00;99.90;;;;;;5052074;28;20500;-56
2022/04/10 06:34:15;;;;;;;22.58;12.68;;;4.10;99.90;;;;;;5052080;28;20029;-56
2022/04/10 06:36:41;;;;;;;22.92;12.55;;;4.30;99.90;;;;;;5052062;28;20029;-56
2022/04/10 06:39:06;;;;;;;24.20;12.63;;;4.30;99.90;;;;;;5052084;28;20028;-56
2022/04/10 06:41:32;;;;;;;22.73;12.38;;;4.20;99.90;;;;;;5051679;28;20036;-56
2022/04/10 06:43:58;;;;;;;20.23;12.40;;;4.40;99.90;;;;;;5052157;28;20040;-56
2022/04/10 06:46:26;;;;;;;22.80;11.85;;;4.50;99.90;;;;;;5052707;28;20033;-56
2022/04/10 06:48:52;;;;;;;22.00;11.85;;;4.60;99.90;;;;;;5052272;28;20560;-56
2022/04/10 06:51:18;;;;;;;21.48;11.82;;;4.60;99.90;;;;;;5051510;28;20029;-56
2022/04/10 06:53:43;;;;;;;24.83;12.48;;;4.60;99.90;;;;;;5052045;28;20025;-56
2022/04/10 06:56:09;;;;;;;21.65;10.80;;;4.50;99.90;;;;;;5052944;28;20070;-56
2022/04/10 06:58:35;;;;;;;22.23;12.50;;;4.60;99.90;;;;;;5052046;28;20075;-56
2022/04/10 07:01:01;;;;;;;23.13;13.45;;;4.60;99.90;;;;;;5052103;28;20062;-56
2022/04/10 07:03:27;;;;;;;27.70;13.73;;;4.60;99.90;;;;;;5084366;28;20017;-56
2022/04/10 07:05:52;;;;;;;22.27;13.43;;;4.80;99.90;;;;;;5050835;28;20389;-56
2022/04/10 07:08:18;;;;;;;25.73;13.88;;;4.90;99.90;;;;;;5051414;28;20028;-56
2022/04/10 07:10:44;;;;;;;22.55;13.02;;;5.10;99.90;;;;;;5051806;28;20040;-56
2022/04/10 07:13:10;;;;;;;25.63;12.50;;;5.30;99.90;;;;;;5051396;28;20032;-56
2022/04/10 07:15:37;;;;;;;22.05;11.90;;;5.50;99.90;;;;;;5051747;28;20014;-56
2022/04/10 07:18:03;;;;;;;24.77;13.05;;;5.70;99.90;;;;;;5051612;28;20036;-56
2022/04/10 07:20:28;;;;;;;26.90;12.20;;;5.80;99.90;;;;;;5051476;28;20020;-56
2022/04/10 07:25:39;;;;;;;27.52;12.32;;;6.00;99.90;;;;;;5052133;28;20418;-56
2022/04/10 07:28:05;;;;;;;24.58;11.82;;;6.20;99.90;;;;;;5058549;28;20045;-56
2022/04/10 07:30:31;;;;;;;29.13;13.48;;;6.10;99.90;;;;;;5060343;28;20029;-56
2022/04/10 07:32:58;;;;;;;19.48;11.07;;;6.40;99.90;;;;;;5053058;28;20065;-56
2022/04/10 07:35:27;;;;;;;20.58;10.02;;;7.40;99.90;;;;;;5051062;28;20108;-56
2022/04/10 07:37:53;;;;;;;16.40;9.18;;;8.60;99.90;;;;;;5050568;28;20417;-56
2022/04/10 07:40:21;;;;;;;15.63;9.20;;;9.50;99.90;;;;;;5050734;28;20506;-56
2022/04/10 07:42:47;;;;;;;17.15;9.10;;;10.60;99.90;;;;;;5048511;28;20050;-57
2022/04/10 07:47:25;;;;;;;15.45;8.38;;;11.50;99.90;;;;;;5049539;28;20115;-56
2022/04/10 07:47:59;;;;;;;14.52;8.30;;;11.50;99.90;;;;;;5050354;28;20033;-56
2022/04/10 07:50:25;;;;;;;16.52;8.68;;;11.50;99.90;;;;;;5049458;28;20047;-57
2022/04/10 07:52:52;;;;;;;14.55;9.07;;;11.50;99.90;;;;;;5050087;28;20070;-57
2022/04/10 07:55:18;;;;;;;16.90;9.02;;;11.80;99.90;;;;;;5049614;28;20037;-57
2022/04/10 07:57:43;;;;;;;15.40;8.82;;;12.00;99.90;;;;;;5049606;28;20478;-57
2022/04/10 08:00:09;;;;;;;17.15;8.25;;;12.70;99.90;;;;;;5053468;28;20147;-57
2022/04/10 08:02:37;;;;;;;16.33;9.23;;;12.80;99.90;;;;;;5054142;28;20096;-57
2022/04/10 08:05:03;;;;;;;16.27;8.45;;;12.40;99.90;;;;;;5054111;28;20497;-57
2022/04/10 08:07:29;;;;;;;21.80;9.07;;;12.50;99.90;;;;;;5053381;28;20029;-57
2022/04/10 08:09:54;;;;;;;12.43;7.32;;;12.40;99.90;;;;;;5054482;28;20466;-57
2022/04/10 08:12:20;;;;;;;20.73;8.13;;;13.10;99.90;;;;;;5053698;28;20037;-57
2022/04/10 08:14:46;;;;;;;14.43;7.88;;;12.50;99.90;;;;;;5054134;28;20028;-57
2022/04/10 08:17:12;;;;;;;18.38;9.05;;;12.00;99.90;;;;;;5054454;28;20071;-57
2022/04/10 08:19:40;;;;;;;16.15;8.40;;;11.80;99.90;;;;;;5054026;28;20084;-57
2022/04/10 08:22:06;;;;;;;18.45;8.20;;;12.20;99.90;;;;;;5054124;28;20041;-57
2022/04/10 08:24:32;;;;;;;15.52;8.38;;;13.00;99.90;;;;;;5053549;28;20039;-57
2022/04/10 08:26:59;;;;;;;14.02;7.75;;;13.00;99.90;;;;;;5053029;28;20506;-57
2022/04/10 08:29:25;;;;;;;14.35;7.47;;;13.10;99.90;;;;;;5052913;28;20079;-57
2022/04/10 08:31:51;;;;;;;14.15;7.70;;;13.60;99.90;;;;;;5051462;28;20045;-57
2022/04/10 08:34:17;;;;;;;13.85;7.80;;;14.00;99.90;;;;;;5052834;28;20067;-57
2022/04/10 08:36:42;;;;;;;13.82;8.13;;;14.20;99.90;;;;;;5053352;28;20032;-57
2022/04/10 08:39:08;;;;;;;15.38;8.32;;;13.90;99.90;;;;;;5051907;28;20021;-57
2022/04/10 08:41:37;;;;;;;15.63;8.70;;;14.40;99.90;;;;;;5052700;28;20036;-57
2022/04/10 08:44:03;;;;;;;15.30;7.50;;;14.30;99.90;;;;;;5052847;28;20033;-57
2022/04/10 08:46:35;;;;;;;19.10;8.52;;;14.10;99.90;;;;;;5052752;28;20162;-57
2022/04/10 08:49:01;;;;;;;16.58;7.90;;;14.30;99.90;;;;;;5052843;28;20104;-57
2022/04/10 08:51:29;;;;;;;14.98;7.43;;;14.60;99.90;;;;;;5052925;28;20517;-57
2022/04/10 08:53:55;;;;;;;13.85;8.02;;;14.70;99.90;;;;;;5052359;28;20029;-57
2022/04/10 08:56:22;;;;;;;12.27;7.00;;;15.20;99.90;;;;;;5052443;28;20029;-57
2022/04/10 08:58:50;;;;;;;12.05;7.18;;;15.80;99.60;;;;;;5052510;28;20390;-57
2022/04/10 09:01:22;;;;;;;13.13;6.50;;;15.50;99.60;;;;;;5052848;28;20025;-57
2022/04/10 09:03:48;;;;;;;14.90;7.38;;;15.20;99.50;;;;;;5052649;28;20080;-57
2022/04/10 09:06:14;;;;;;;12.43;6.60;;;15.30;99.90;;;;;;5052351;28;20041;-57
2022/04/10 09:08:40;;;;;;;9.43;6.35;;;15.40;98.70;;;;;;5052519;28;20017;-57
2022/04/10 09:11:11;;;;;;;17.10;6.28;;;15.60;98.60;;;;;;5050903;28;20093;-57
2022/04/10 09:13:47;;;;;;;14.80;6.53;;;15.40;96.80;;;;;;5052287;28;20052;-57
2022/04/10 09:16:22;;;;;;;15.82;6.82;;;14.60;97.20;;;;;;5053444;28;20102;-57
2022/04/10 09:18:57;;;;;;;13.07;6.60;;;13.80;99.40;;;;;;5052468;28;20425;-58
2022/04/10 09:21:28;;;;;;;12.88;5.88;;;14.30;98.60;;;;;;5052823;28;20108;-57
2022/04/10 09:24:04;;;;;;;13.13;6.45;;;14.40;96.10;;;;;;5052755;28;20071;-57
2022/04/10 09:26:51;;;;;;;14.65;6.50;;;14.30;97.60;;;;;;5052000;28;20055;-58
2022/04/10 09:29:22;;;;;;;12.00;5.70;;;14.70;97.00;;;;;;5051633;28;20029;-58
2022/04/10 09:31:49;;;;;;;11.48;5.60;;;15.00;94.50;;;;;;5051654;28;20557;-58
2022/04/10 09:34:22;;;;;;;9.52;5.07;;;15.30;92.50;;;;;;5051769;28;20021;-58
2022/04/10 09:37:03;;;;;;;12.93;5.00;;;15.50;91.10;;;;;;5052048;28;20109;-58
2022/04/10 09:39:31;;;;;;;10.85;5.60;;;15.90;90.40;;;;;;5051789;28;20025;-58
2022/04/10 09:42:08;;;;;;;10.90;5.30;;;16.80;88.20;;;;;;5051878;28;20061;-58
2022/04/10 09:44:35;;;;;;;10.52;4.72;;;17.20;88.20;;;;;;5051738;28;20067;-58
2022/04/10 09:47:02;;;;;;;8.93;4.22;;;17.00;83.90;;;;;;5051656;28;20051;-58
2022/04/10 09:49:36;;;;;;;7.70;3.50;;;17.70;81.60;;;;;;5051421;28;20029;-58
2022/04/10 09:52:11;;;;;;;11.00;4.60;;;17.20;76.80;;;;;;5051612;28;20063;-58
2022/04/10 09:54:47;;;;;;;12.02;5.55;;;16.70;78.20;;;;;;5051159;28;20032;-58
2022/04/10 09:57:22;;;;;;;12.98;5.78;;;16.10;84.60;;;;;;5050083;28;20541;-58
2022/04/10 09:59:51;;;;;;;12.35;5.25;;;15.90;90.10;;;;;;5051370;28;20087;-58
2022/04/10 10:02:19;;;;;;;8.50;4.75;;;16.50;88.00;;;;;;5051474;28;20025;-58
2022/04/10 10:04:47;;;;;;;8.68;4.60;;;17.00;83.20;;;;;;5051179;28;20112;-58
2022/04/10 10:07:16;;;;;;;8.18;3.75;;;17.10;79.20;;;;;;5051227;28;20021;-58
2022/04/10 10:09:43;;;;;;;6.78;3.63;;;16.90;76.10;;;;;;5051194;28;20021;-58
2022/04/10 10:12:10;;;;;;;7.53;3.42;;;16.70;77.60;;;;;;5051466;28;20052;-58
2022/04/10 10:14:37;;;;;;;5.65;3.67;;;16.30;75.00;;;;;;5051051;28;20079;-58
2022/04/10 10:17:05;;;;;;;6.85;4.30;;;15.80;80.00;;;;;;5051191;28;20072;-58
2022/04/10 10:19:36;;;;;;;11.40;5.35;;;16.70;81.00;;;;;;5050833;28;20021;-58
2022/04/10 10:22:06;;;;;;;8.52;3.83;;;16.60;79.40;;;;;;5050819;28;20052;-58
2022/04/10 10:24:53;;;;;;;8.32;4.35;;;16.90;77.00;;;;;;5050765;28;20025;-58
2022/04/10 10:27:51;;;;;;;7.85;3.58;;;16.60;77.70;;;;;;5050662;28;20113;-58
2022/04/10 10:30:35;;;;;;;11.70;3.80;;;16.90;74.80;;;;;;5051215;28;20029;-58
2022/04/10 10:33:17;;;;;;;6.72;3.60;;;18.30;72.10;;;;;;5051632;28;20470;-58
2022/04/10 10:35:47;;;;;;;5.30;3.75;;;19.30;68.50;;;;;;5050421;28;20493;-58
2022/04/10 10:38:20;;;;;;;7.20;3.33;;;18.70;69.80;;;;;;5050333;28;20093;-58
2022/04/10 10:40:46;;;;;;;5.95;3.33;;;18.50;70.50;;;;;;5050404;28;20104;-58
2022/04/10 10:43:17;;;;;;;6.82;3.65;;;18.70;69.40;;;;;;5050734;28;20104;-58
2022/04/10 10:45:43;;;;;;;6.57;3.35;;;18.30;70.20;;;;;;5050528;28;20055;-58
2022/04/10 10:48:31;;;;;;;5.65;3.13;;;18.90;69.70;;;;;;5050606;28;20029;-58
2022/04/10 10:51:20;;;;;;;6.47;3.30;;;17.90;67.20;;;;;;5049542;28;20041;-58
2022/04/10 10:53:47;;;;;;;6.30;2.88;;;17.40;70.50;;;;;;5050113;28;20446;-58
2022/04/10 10:56:20;;;;;;;7.15;3.50;;;17.70;69.10;;;;;;5050206;28;20028;-58
2022/04/10 10:58:48;;;;;;;5.15;3.17;;;18.10;68.70;;;;;;5050083;28;20028;-58
2022/04/10 11:01:24;;;;;;;5.82;3.33;;;19.40;65.60;;;;;;5048873;28;20029;-58
2022/04/10 11:04:03;;;;;;;5.07;3.10;;;20.50;62.60;;;;;;5050536;28;20426;-58
2022/04/10 11:06:31;;;;;;;7.05;3.00;;;19.80;61.00;;;;;;5050053;28;20021;-58
2022/04/10 11:09:35;;;;;;;5.93;3.40;;;17.20;67.20;;;;;;5050044;28;20021;-57
2022/04/10 11:12:01;;;;;;;5.45;3.10;;;15.70;72.30;;;;;;5030840;28;20063;-57
2022/04/10 11:14:33;;;;;;;9.85;3.72;;;15.20;71.70;;;;;;5047393;28;20068;-57
2022/04/10 11:17:21;;;;;;;6.38;3.38;;;14.80;74.20;;;;;;5048552;28;20605;-57
2022/04/10 11:19:54;;;;;;;6.22;3.45;;;16.00;73.10;;;;;;5050108;28;20479;-57
2022/04/10 11:22:34;;;;;;;6.38;3.42;;;16.10;71.00;;;;;;5049929;28;20480;-57
2022/04/10 11:25:08;;;;;;;6.30;3.30;;;15.30;71.30;;;;;;5049898;28;20513;-57
2022/04/10 11:27:53;;;;;;;9.07;3.83;;;14.80;74.20;;;;;;5050088;28;20059;-57
2022/04/10 11:30:33;;;;;;;7.65;3.80;;;14.60;77.20;;;;;;5050340;28;20468;-57
2022/04/10 11:32:59;;;;;;;6.75;3.30;;;14.40;77.00;;;;;;5048490;28;20033;-57
2022/04/10 11:35:28;;;;;;;5.68;3.05;;;14.40;76.10;;;;;;5050207;28;20029;-57
2022/04/10 11:37:57;;;;;;;6.68;2.97;;;15.20;72.80;;;;;;5049391;28;20047;-57
2022/04/10 11:40:28;;;;;;;6.88;3.45;;;16.30;71.50;;;;;;5049976;28;20027;-57
2022/04/10 11:42:56;;;;;;;5.20;3.20;;;16.90;70.50;;;;;;5050073;28;20057;-57
2022/04/10 11:45:27;;;;;;;7.75;3.22;;;18.20;67.00;;;;;;5049527;28;20047;-57
2022/04/10 11:47:53;;;;;;;6.25;2.95;;;18.90;63.70;;;;;;5049595;28;20029;-57
2022/04/10 11:50:20;;;;;;;5.93;3.00;;;19.50;63.50;;;;;;5048737;28;20446;-57
2022/04/10 11:53:03;;;;;;;4.60;3.00;;;20.00;61.70;;;;;;5049776;28;20104;-57
2022/04/10 11:55:31;;;;;;;6.57;3.55;;;19.70;62.30;;;;;;5049622;28;20059;-57
2022/04/10 11:57:57;;;;;;;5.65;2.92;;;18.90;62.90;;;;;;5049466;28;20524;-57
2022/04/10 12:00:23;;;;;;;5.10;2.83;;;18.80;62.40;;;;;;5049358;28;20078;-57
2022/04/10 12:02:53;;;;;;;6.07;3.00;;;19.00;63.80;;;;;;5049477;28;20021;-57
2022/04/10 12:05:20;;;;;;;4.00;2.72;;;18.90;61.80;;;;;;5049593;28;20108;-57
2022/04/10 12:07:46;;;;;;;5.45;2.67;;;17.40;66.60;;;;;;5049295;28;20029;-57
2022/04/10 12:10:18;;;;;;;6.68;3.38;;;16.20;67.70;;;;;;5049499;28;20017;-57
2022/04/10 12:12:46;;;;;;;9.90;3.95;;;15.30;70.40;;;;;;5049400;28;20028;-57
2022/04/10 12:15:19;;;;;;;6.82;3.20;;;14.40;74.00;;;;;;5049571;28;20055;-56
2022/04/10 12:17:48;;;;;;;7.18;2.90;;;14.90;72.50;;;;;;5049353;28;20405;-57
2022/04/10 12:20:14;;;;;;;4.65;2.55;;;16.20;70.30;;;;;;5049325;28;20031;-56
2022/04/10 12:22:43;;;;;;;5.05;3.00;;;17.20;68.60;;;;;;5049139;28;20037;-56
2022/04/10 12:25:11;;;;;;;5.70;2.80;;;17.80;65.50;;;;;;5049226;28;20025;-56
2022/04/10 12:27:38;;;;;;;5.35;3.10;;;17.60;66.30;;;;;;5049058;28;20032;-56
2022/04/10 12:30:09;;;;;;;6.80;2.75;;;17.40;66.60;;;;;;5049263;28;20572;-56
2022/04/10 12:32:36;;;;;;;3.97;3.23;;;16.70;65.00;;;;;;5049189;28;20481;-56
2022/04/10 12:35:13;;;;;;;5.70;2.50;;;15.80;66.00;;;;;;5047530;28;20032;-56
2022/04/10 12:38:05;;;;;;;4.20;2.67;;;15.20;69.20;;;;;;5049061;28;20025;-57
2022/04/10 12:40:32;;;;;;;6.82;3.10;;;14.90;70.40;;;;;;5049080;28;20037;-57
2022/04/10 12:43:05;;;;;;;8.65;3.20;;;14.30;71.30;;;;;;5049171;28;20032;-56
2022/04/10 12:45:39;;;;;;;6.90;3.10;;;14.20;72.50;;;;;;5050960;28;20052;-56
2022/04/10 12:48:24;;;;;;;7.25;3.10;;;13.90;72.90;;;;;;5053645;28;20513;-56
2022/04/10 12:51:07;;;;;;;7.68;3.20;;;13.90;73.20;;;;;;5052956;28;20029;-56